sensor_id;sensor_type;location;lat;lon;timestamp;P1;durP1;ratioP1;P2;durP2;ratioP2
4646;SDS011;2336;47.822;7.564;2023-02-28T00:00:45;2.80;;;2.70;;
4646;SDS011;2336;47.822;7.564;2023-02-28T00:03:11;2.40;;;2.30;;
4646;SDS011;2336;47.822;7.564;2023-02-28T00:05:38;2.20;;;2.10;;
4646;SDS011;2336;47.822;7.564;2023-02-28T00:08:06;2.47;;;2.30;;
4646;SDS011;2336;47.822;7.564;2023-02-28T00:10:33;3.03;;;2.93;;
4646;SDS011;2336;47.822;7.564;2023-02-28T00:13:03;2.57;;;2.47;;
4646;SDS011;2336;47.822;7.564;2023-02-28T00:15:31;2.47;;;2.37;;
4646;SDS011;2336;47.822;7.564;2023-02-28T00:17:58;2.73;;;2.63;;
4646;SDS011;2336;47.822;7.564;2023-02-28T00:20:25;2.67;;;2.47;;
4646;SDS011;2336;47.822;7.564;2023-02-28T00:22:53;3.03;;;2.83;;
4646;SDS011;2336;47.822;7.564;2023-02-28T00:25:20;2.23;;;2.23;;
4646;SDS011;2336;47.822;7.564;2023-02-28T00:27:48;2.70;;;2.60;;
4646;SDS011;2336;47.822;7.564;2023-02-28T00:30:17;2.87;;;2.77;;
4646;SDS011;2336;47.822;7.564;2023-02-28T00:32:45;2.50;;;2.40;;
4646;SDS011;2336;47.822;7.564;2023-02-28T00:35:12;3.10;;;2.90;;
4646;SDS011;2336;47.822;7.564;2023-02-28T00:37:39;2.77;;;2.57;;
4646;SDS011;2336;47.822;7.564;2023-02-28T00:40:06;3.03;;;2.83;;
4646;SDS011;2336;47.822;7.564;2023-02-28T00:42:35;2.70;;;2.60;;
4646;SDS011;2336;47.822;7.564;2023-02-28T00:45:02;2.40;;;2.30;;
4646;SDS011;2336;47.822;7.564;2023-02-28T00:47:31;3.83;;;3.63;;
4646;SDS011;2336;47.822;7.564;2023-02-28T00:49:59;2.73;;;2.63;;
4646;SDS011;2336;47.822;7.564;2023-02-28T00:52:26;2.83;;;2.73;;
4646;SDS011;2336;47.822;7.564;2023-02-28T00:54:53;3.00;;;2.90;;
4646;SDS011;2336;47.822;7.564;2023-02-28T00:57:19;2.70;;;2.60;;
4646;SDS011;2336;47.822;7.564;2023-02-28T00:59:46;3.37;;;3.20;;
4646;SDS011;2336;47.822;7.564;2023-02-28T01:02:13;2.80;;;2.70;;
4646;SDS011;2336;47.822;7.564;2023-02-28T01:04:41;2.70;;;2.60;;
4646;SDS011;2336;47.822;7.564;2023-02-28T01:07:08;2.80;;;2.70;;
4646;SDS011;2336;47.822;7.564;2023-02-28T01:09:34;2.63;;;2.53;;
4646;SDS011;2336;47.822;7.564;2023-02-28T01:12:01;2.60;;;2.40;;
4646;SDS011;2336;47.822;7.564;2023-02-28T01:14:28;2.67;;;2.57;;
4646;SDS011;2336;47.822;7.564;2023-02-28T01:16:55;3.10;;;2.90;;
4646;SDS011;2336;47.822;7.564;2023-02-28T01:19:21;2.50;;;2.40;;
4646;SDS011;2336;47.822;7.564;2023-02-28T01:21:50;3.00;;;2.90;;
4646;SDS011;2336;47.822;7.564;2023-02-28T01:24:16;3.70;;;3.13;;
4646;SDS011;2336;47.822;7.564;2023-02-28T01:26:43;3.20;;;3.00;;
4646;SDS011;2336;47.822;7.564;2023-02-28T01:29:10;2.97;;;2.87;;
4646;SDS011;2336;47.822;7.564;2023-02-28T01:31:37;3.07;;;2.97;;
4646;SDS011;2336;47.822;7.564;2023-02-28T01:34:03;3.23;;;2.83;;
4646;SDS011;2336;47.822;7.564;2023-02-28T01:36:30;3.03;;;2.90;;
4646;SDS011;2336;47.822;7.564;2023-02-28T01:38:58;3.17;;;2.90;;
4646;SDS011;2336;47.822;7.564;2023-02-28T01:41:26;2.73;;;2.63;;
4646;SDS011;2336;47.822;7.564;2023-02-28T01:43:56;2.70;;;2.60;;
4646;SDS011;2336;47.822;7.564;2023-02-28T01:46:32;3.10;;;2.90;;
4646;SDS011;2336;47.822;7.564;2023-02-28T01:49:02;3.40;;;3.03;;
4646;SDS011;2336;47.822;7.564;2023-02-28T01:51:33;6.07;;;5.70;;
4646;SDS011;2336;47.822;7.564;2023-02-28T01:54:07;6.17;;;5.67;;
4646;SDS011;2336;47.822;7.564;2023-02-28T01:56:38;3.60;;;3.40;;
4646;SDS011;2336;47.822;7.564;2023-02-28T01:59:09;25.03;;;16.87;;
4646;SDS011;2336;47.822;7.564;2023-02-28T02:01:38;8.63;;;7.83;;
4646;SDS011;2336;47.822;7.564;2023-02-28T02:04:05;4.30;;;4.00;;
4646;SDS011;2336;47.822;7.564;2023-02-28T02:06:34;6.87;;;6.37;;
4646;SDS011;2336;47.822;7.564;2023-02-28T02:09:03;4.43;;;4.23;;
4646;SDS011;2336;47.822;7.564;2023-02-28T02:11:32;3.70;;;3.50;;
4646;SDS011;2336;47.822;7.564;2023-02-28T02:14:06;3.77;;;3.60;;
4646;SDS011;2336;47.822;7.564;2023-02-28T02:16:44;3.47;;;3.30;;
4646;SDS011;2336;47.822;7.564;2023-02-28T02:19:28;5.70;;;5.30;;
4646;SDS011;2336;47.822;7.564;2023-02-28T02:22:21;3.30;;;3.20;;
4646;SDS011;2336;47.822;7.564;2023-02-28T02:25:17;3.23;;;3.10;;
4646;SDS011;2336;47.822;7.564;2023-02-28T02:28:13;3.40;;;3.30;;
4646;SDS011;2336;47.822;7.564;2023-02-28T02:34:03;3.77;;;3.50;;
4646;SDS011;2336;47.822;7.564;2023-02-28T02:36:49;3.20;;;3.07;;
4646;SDS011;2336;47.822;7.564;2023-02-28T02:39:26;2.73;;;2.73;;
4646;SDS011;2336;47.822;7.564;2023-02-28T02:41:58;3.13;;;2.93;;
4646;SDS011;2336;47.822;7.564;2023-02-28T02:44:27;3.33;;;3.23;;
4646;SDS011;2336;47.822;7.564;2023-02-28T02:47:01;3.30;;;3.20;;
4646;SDS011;2336;47.822;7.564;2023-02-28T02:49:34;3.20;;;3.10;;
4646;SDS011;2336;47.822;7.564;2023-02-28T02:52:03;2.80;;;2.70;;
4646;SDS011;2336;47.822;7.564;2023-02-28T02:54:33;3.20;;;3.07;;
4646;SDS011;2336;47.822;7.564;2023-02-28T02:57:03;3.17;;;3.07;;
4646;SDS011;2336;47.822;7.564;2023-02-28T02:59:34;3.40;;;3.10;;
4646;SDS011;2336;47.822;7.564;2023-02-28T03:02:03;3.03;;;2.93;;
4646;SDS011;2336;47.822;7.564;2023-02-28T03:04:36;3.30;;;3.17;;
4646;SDS011;2336;47.822;7.564;2023-02-28T03:07:08;2.70;;;2.60;;
4646;SDS011;2336;47.822;7.564;2023-02-28T03:09:35;3.03;;;2.93;;
4646;SDS011;2336;47.822;7.564;2023-02-28T03:12:01;3.47;;;3.27;;
4646;SDS011;2336;47.822;7.564;2023-02-28T03:14:35;2.80;;;2.70;;
4646;SDS011;2336;47.822;7.564;2023-02-28T03:17:23;2.97;;;2.87;;
4646;SDS011;2336;47.822;7.564;2023-02-28T03:20:01;3.10;;;2.90;;
4646;SDS011;2336;47.822;7.564;2023-02-28T03:22:36;3.00;;;2.90;;
4646;SDS011;2336;47.822;7.564;2023-02-28T03:25:16;2.73;;;2.63;;
4646;SDS011;2336;47.822;7.564;2023-02-28T03:27:48;2.57;;;2.40;;
4646;SDS011;2336;47.822;7.564;2023-02-28T03:30:22;2.73;;;2.63;;
4646;SDS011;2336;47.822;7.564;2023-02-28T03:32:55;2.37;;;2.27;;
4646;SDS011;2336;47.822;7.564;2023-02-28T03:35:27;3.07;;;2.97;;
4646;SDS011;2336;47.822;7.564;2023-02-28T03:37:59;3.20;;;3.10;;
4646;SDS011;2336;47.822;7.564;2023-02-28T03:40:32;3.27;;;3.00;;
4646;SDS011;2336;47.822;7.564;2023-02-28T03:43:01;2.77;;;2.67;;
4646;SDS011;2336;47.822;7.564;2023-02-28T03:45:32;3.10;;;3.00;;
4646;SDS011;2336;47.822;7.564;2023-02-28T03:48:02;3.00;;;2.80;;
4646;SDS011;2336;47.822;7.564;2023-02-28T03:50:36;2.70;;;2.60;;
4646;SDS011;2336;47.822;7.564;2023-02-28T03:53:07;2.43;;;2.33;;
4646;SDS011;2336;47.822;7.564;2023-02-28T03:55:39;2.80;;;2.70;;
4646;SDS011;2336;47.822;7.564;2023-02-28T03:58:11;3.43;;;3.23;;
4646;SDS011;2336;47.822;7.564;2023-02-28T04:00:43;3.00;;;2.90;;
4646;SDS011;2336;47.822;7.564;2023-02-28T04:03:13;3.00;;;2.90;;
4646;SDS011;2336;47.822;7.564;2023-02-28T04:05:48;2.80;;;2.70;;
4646;SDS011;2336;47.822;7.564;2023-02-28T04:08:18;3.30;;;3.13;;
4646;SDS011;2336;47.822;7.564;2023-02-28T04:10:45;3.00;;;2.80;;
4646;SDS011;2336;47.822;7.564;2023-02-28T04:13:17;2.83;;;2.73;;
4646;SDS011;2336;47.822;7.564;2023-02-28T04:15:44;2.87;;;2.77;;
4646;SDS011;2336;47.822;7.564;2023-02-28T04:18:11;3.13;;;2.93;;
4646;SDS011;2336;47.822;7.564;2023-02-28T04:20:37;2.97;;;2.87;;
4646;SDS011;2336;47.822;7.564;2023-02-28T04:23:05;3.10;;;3.00;;
4646;SDS011;2336;47.822;7.564;2023-02-28T04:25:32;3.23;;;2.97;;
4646;SDS011;2336;47.822;7.564;2023-02-28T04:27:59;2.93;;;2.83;;
4646;SDS011;2336;47.822;7.564;2023-02-28T04:30:25;2.50;;;2.40;;
4646;SDS011;2336;47.822;7.564;2023-02-28T04:32:52;3.30;;;3.20;;
4646;SDS011;2336;47.822;7.564;2023-02-28T04:35:19;4.50;;;4.20;;
4646;SDS011;2336;47.822;7.564;2023-02-28T04:37:46;4.47;;;4.13;;
4646;SDS011;2336;47.822;7.564;2023-02-28T04:40:14;3.20;;;3.10;;
4646;SDS011;2336;47.822;7.564;2023-02-28T04:42:41;3.00;;;2.90;;
4646;SDS011;2336;47.822;7.564;2023-02-28T04:45:08;3.33;;;3.23;;
4646;SDS011;2336;47.822;7.564;2023-02-28T04:47:35;2.50;;;2.40;;
4646;SDS011;2336;47.822;7.564;2023-02-28T04:50:02;2.90;;;2.80;;
4646;SDS011;2336;47.822;7.564;2023-02-28T04:52:29;2.90;;;2.80;;
4646;SDS011;2336;47.822;7.564;2023-02-28T04:54:56;2.60;;;2.50;;
4646;SDS011;2336;47.822;7.564;2023-02-28T04:57:24;3.27;;;3.07;;
4646;SDS011;2336;47.822;7.564;2023-02-28T04:59:51;3.00;;;2.90;;
4646;SDS011;2336;47.822;7.564;2023-02-28T05:02:18;3.13;;;2.93;;
4646;SDS011;2336;47.822;7.564;2023-02-28T05:04:46;3.50;;;3.37;;
4646;SDS011;2336;47.822;7.564;2023-02-28T05:07:12;9.73;;;9.13;;
4646;SDS011;2336;47.822;7.564;2023-02-28T05:09:39;3.10;;;3.00;;
4646;SDS011;2336;47.822;7.564;2023-02-28T05:12:06;3.80;;;3.50;;
4646;SDS011;2336;47.822;7.564;2023-02-28T05:14:35;2.93;;;2.83;;
4646;SDS011;2336;47.822;7.564;2023-02-28T05:17:02;3.20;;;3.00;;
4646;SDS011;2336;47.822;7.564;2023-02-28T05:19:29;3.90;;;3.70;;
4646;SDS011;2336;47.822;7.564;2023-02-28T05:21:55;3.57;;;3.47;;
4646;SDS011;2336;47.822;7.564;2023-02-28T05:24:23;3.17;;;3.07;;
4646;SDS011;2336;47.822;7.564;2023-02-28T05:26:50;3.20;;;3.00;;
4646;SDS011;2336;47.822;7.564;2023-02-28T05:29:18;3.60;;;3.40;;
4646;SDS011;2336;47.822;7.564;2023-02-28T05:31:46;3.87;;;3.67;;
4646;SDS011;2336;47.822;7.564;2023-02-28T05:34:13;3.50;;;3.40;;
4646;SDS011;2336;47.822;7.564;2023-02-28T05:36:41;3.60;;;3.40;;
4646;SDS011;2336;47.822;7.564;2023-02-28T05:39:08;4.73;;;4.00;;
4646;SDS011;2336;47.822;7.564;2023-02-28T05:41:37;3.90;;;3.70;;
4646;SDS011;2336;47.822;7.564;2023-02-28T05:44:08;4.63;;;4.43;;
4646;SDS011;2336;47.822;7.564;2023-02-28T05:46:35;3.93;;;3.73;;
4646;SDS011;2336;47.822;7.564;2023-02-28T05:49:03;4.40;;;4.10;;
4646;SDS011;2336;47.822;7.564;2023-02-28T05:51:30;4.30;;;4.10;;
4646;SDS011;2336;47.822;7.564;2023-02-28T05:53:59;4.63;;;4.43;;
4646;SDS011;2336;47.822;7.564;2023-02-28T05:56:27;4.70;;;4.30;;
4646;SDS011;2336;47.822;7.564;2023-02-28T05:58:54;4.03;;;3.83;;
4646;SDS011;2336;47.822;7.564;2023-02-28T06:01:22;4.07;;;3.97;;
4646;SDS011;2336;47.822;7.564;2023-02-28T06:03:50;5.00;;;4.70;;
4646;SDS011;2336;47.822;7.564;2023-02-28T06:06:19;4.90;;;4.60;;
4646;SDS011;2336;47.822;7.564;2023-02-28T06:08:45;5.40;;;5.00;;
4646;SDS011;2336;47.822;7.564;2023-02-28T06:11:12;5.70;;;5.30;;
4646;SDS011;2336;47.822;7.564;2023-02-28T06:13:39;5.33;;;5.00;;
4646;SDS011;2336;47.822;7.564;2023-02-28T06:16:07;4.67;;;4.47;;
4646;SDS011;2336;47.822;7.564;2023-02-28T06:18:35;5.33;;;4.90;;
4646;SDS011;2336;47.822;7.564;2023-02-28T06:21:02;5.50;;;5.20;;
4646;SDS011;2336;47.822;7.564;2023-02-28T06:23:30;9.67;;;8.73;;
4646;SDS011;2336;47.822;7.564;2023-02-28T06:25:56;5.37;;;4.90;;
4646;SDS011;2336;47.822;7.564;2023-02-28T06:28:24;5.37;;;5.03;;
4646;SDS011;2336;47.822;7.564;2023-02-28T06:30:51;5.27;;;4.97;;
4646;SDS011;2336;47.822;7.564;2023-02-28T06:33:18;6.30;;;5.80;;
4646;SDS011;2336;47.822;7.564;2023-02-28T06:35:46;5.85;;;5.35;;
4646;SDS011;2336;47.822;7.564;2023-02-28T06:38:13;5.43;;;5.03;;
4646;SDS011;2336;47.822;7.564;2023-02-28T06:40:41;4.82;;;4.53;;
4646;SDS011;2336;47.822;7.564;2023-02-28T06:43:08;5.03;;;4.73;;
4646;SDS011;2336;47.822;7.564;2023-02-28T06:45:41;5.85;;;5.40;;
4646;SDS011;2336;47.822;7.564;2023-02-28T06:48:08;5.47;;;5.13;;
4646;SDS011;2336;47.822;7.564;2023-02-28T06:50:35;5.07;;;4.75;;
4646;SDS011;2336;47.822;7.564;2023-02-28T06:53:02;5.87;;;5.37;;
4646;SDS011;2336;47.822;7.564;2023-02-28T06:55:28;5.77;;;5.37;;
4646;SDS011;2336;47.822;7.564;2023-02-28T06:57:56;5.47;;;5.15;;
4646;SDS011;2336;47.822;7.564;2023-02-28T07:00:24;4.80;;;4.50;;
4646;SDS011;2336;47.822;7.564;2023-02-28T07:02:50;5.57;;;5.27;;
4646;SDS011;2336;47.822;7.564;2023-02-28T07:05:18;6.07;;;5.43;;
4646;SDS011;2336;47.822;7.564;2023-02-28T07:07:45;6.17;;;5.67;;
4646;SDS011;2336;47.822;7.564;2023-02-28T07:10:12;6.30;;;5.80;;
4646;SDS011;2336;47.822;7.564;2023-02-28T07:12:41;7.40;;;6.80;;
4646;SDS011;2336;47.822;7.564;2023-02-28T07:15:10;10.10;;;9.20;;
4646;SDS011;2336;47.822;7.564;2023-02-28T07:17:37;9.67;;;8.77;;
4646;SDS011;2336;47.822;7.564;2023-02-28T07:20:04;6.80;;;6.30;;
4646;SDS011;2336;47.822;7.564;2023-02-28T07:22:32;9.67;;;8.73;;
4646;SDS011;2336;47.822;7.564;2023-02-28T07:24:58;5.57;;;5.27;;
4646;SDS011;2336;47.822;7.564;2023-02-28T07:27:25;6.03;;;5.63;;
4646;SDS011;2336;47.822;7.564;2023-02-28T07:29:52;8.90;;;5.97;;
4646;SDS011;2336;47.822;7.564;2023-02-28T07:32:21;5.17;;;4.87;;
4646;SDS011;2336;47.822;7.564;2023-02-28T07:34:48;4.93;;;4.63;;
4646;SDS011;2336;47.822;7.564;2023-02-28T07:37:15;6.53;;;6.00;;
4646;SDS011;2336;47.822;7.564;2023-02-28T07:39:41;6.60;;;6.10;;
4646;SDS011;2336;47.822;7.564;2023-02-28T07:42:08;6.40;;;5.90;;
4646;SDS011;2336;47.822;7.564;2023-02-28T07:44:37;7.57;;;6.97;;
4646;SDS011;2336;47.822;7.564;2023-02-28T07:47:06;7.30;;;6.70;;
4646;SDS011;2336;47.822;7.564;2023-02-28T07:49:35;6.13;;;5.73;;
4646;SDS011;2336;47.822;7.564;2023-02-28T07:52:03;6.87;;;6.20;;
4646;SDS011;2336;47.822;7.564;2023-02-28T07:54:29;8.07;;;7.47;;
4646;SDS011;2336;47.822;7.564;2023-02-28T07:56:56;7.80;;;7.23;;
4646;SDS011;2336;47.822;7.564;2023-02-28T07:59:23;6.73;;;6.23;;
4646;SDS011;2336;47.822;7.564;2023-02-28T08:01:50;7.23;;;6.67;;
4646;SDS011;2336;47.822;7.564;2023-02-28T08:04:17;6.60;;;6.10;;
4646;SDS011;2336;47.822;7.564;2023-02-28T08:06:45;7.30;;;6.70;;
4646;SDS011;2336;47.822;7.564;2023-02-28T08:09:12;8.63;;;5.43;;
4646;SDS011;2336;47.822;7.564;2023-02-28T08:11:39;5.60;;;5.30;;
4646;SDS011;2336;47.822;7.564;2023-02-28T08:14:06;6.27;;;5.77;;
4646;SDS011;2336;47.822;7.564;2023-02-28T08:16:32;5.97;;;5.53;;
4646;SDS011;2336;47.822;7.564;2023-02-28T08:18:59;6.30;;;5.80;;
4646;SDS011;2336;47.822;7.564;2023-02-28T08:21:26;5.73;;;5.43;;
4646;SDS011;2336;47.822;7.564;2023-02-28T08:23:54;5.50;;;5.17;;
4646;SDS011;2336;47.822;7.564;2023-02-28T08:26:21;5.73;;;5.40;;
4646;SDS011;2336;47.822;7.564;2023-02-28T08:28:48;6.97;;;6.40;;
4646;SDS011;2336;47.822;7.564;2023-02-28T08:31:15;5.93;;;5.50;;
4646;SDS011;2336;47.822;7.564;2023-02-28T08:33:43;6.10;;;5.70;;
4646;SDS011;2336;47.822;7.564;2023-02-28T08:36:10;6.00;;;5.60;;
4646;SDS011;2336;47.822;7.564;2023-02-28T08:38:37;5.60;;;5.30;;
4646;SDS011;2336;47.822;7.564;2023-02-28T08:41:06;6.00;;;5.53;;
4646;SDS011;2336;47.822;7.564;2023-02-28T08:43:36;6.20;;;5.70;;
4646;SDS011;2336;47.822;7.564;2023-02-28T08:46:02;6.73;;;6.23;;
4646;SDS011;2336;47.822;7.564;2023-02-28T08:48:30;6.57;;;6.00;;
4646;SDS011;2336;47.822;7.564;2023-02-28T08:50:59;6.10;;;5.70;;
4646;SDS011;2336;47.822;7.564;2023-02-28T08:53:28;6.40;;;5.90;;
4646;SDS011;2336;47.822;7.564;2023-02-28T08:55:56;6.27;;;5.87;;
4646;SDS011;2336;47.822;7.564;2023-02-28T08:58:25;6.03;;;5.63;;
4646;SDS011;2336;47.822;7.564;2023-02-28T09:00:52;6.50;;;6.07;;
4646;SDS011;2336;47.822;7.564;2023-02-28T09:03:19;7.23;;;6.60;;
4646;SDS011;2336;47.822;7.564;2023-02-28T09:05:55;5.80;;;5.40;;
4646;SDS011;2336;47.822;7.564;2023-02-28T09:08:24;6.10;;;5.60;;
4646;SDS011;2336;47.822;7.564;2023-02-28T09:10:53;6.77;;;6.27;;
4646;SDS011;2336;47.822;7.564;2023-02-28T09:13:22;6.40;;;5.93;;
4646;SDS011;2336;47.822;7.564;2023-02-28T09:15:51;6.20;;;5.80;;
4646;SDS011;2336;47.822;7.564;2023-02-28T09:18:18;5.77;;;5.37;;
4646;SDS011;2336;47.822;7.564;2023-02-28T09:20:45;9.00;;;8.20;;
4646;SDS011;2336;47.822;7.564;2023-02-28T09:23:12;6.97;;;6.47;;
4646;SDS011;2336;47.822;7.564;2023-02-28T09:25:44;6.63;;;6.13;;
4646;SDS011;2336;47.822;7.564;2023-02-28T09:28:12;6.03;;;5.63;;
4646;SDS011;2336;47.822;7.564;2023-02-28T09:30:41;7.30;;;6.80;;
4646;SDS011;2336;47.822;7.564;2023-02-28T09:33:09;6.73;;;6.20;;
4646;SDS011;2336;47.822;7.564;2023-02-28T09:35:36;6.70;;;6.20;;
4646;SDS011;2336;47.822;7.564;2023-02-28T09:38:03;6.93;;;6.00;;
4646;SDS011;2336;47.822;7.564;2023-02-28T09:40:30;5.90;;;5.60;;
4646;SDS011;2336;47.822;7.564;2023-02-28T09:42:57;7.27;;;6.67;;
4646;SDS011;2336;47.822;7.564;2023-02-28T09:45:26;7.33;;;6.37;;
4646;SDS011;2336;47.822;7.564;2023-02-28T09:47:58;6.30;;;5.90;;
4646;SDS011;2336;47.822;7.564;2023-02-28T09:50:30;7.07;;;6.53;;
4646;SDS011;2336;47.822;7.564;2023-02-28T09:52:59;5.77;;;5.37;;
4646;SDS011;2336;47.822;7.564;2023-02-28T09:55:32;9.17;;;8.40;;
4646;SDS011;2336;47.822;7.564;2023-02-28T09:58:04;6.43;;;6.03;;
4646;SDS011;2336;47.822;7.564;2023-02-28T10:00:35;6.77;;;6.20;;
4646;SDS011;2336;47.822;7.564;2023-02-28T10:05:56;16.20;;;13.83;;
4646;SDS011;2336;47.822;7.564;2023-02-28T10:08:30;9.63;;;8.73;;
4646;SDS011;2336;47.822;7.564;2023-02-28T10:11:06;6.30;;;5.90;;
4646;SDS011;2336;47.822;7.564;2023-02-28T10:13:36;6.70;;;6.13;;
4646;SDS011;2336;47.822;7.564;2023-02-28T10:16:11;6.93;;;6.50;;
4646;SDS011;2336;47.822;7.564;2023-02-28T10:18:42;6.93;;;6.47;;
4646;SDS011;2336;47.822;7.564;2023-02-28T10:21:15;7.17;;;6.67;;
4646;SDS011;2336;47.822;7.564;2023-02-28T10:23:46;6.77;;;6.27;;
4646;SDS011;2336;47.822;7.564;2023-02-28T10:26:16;6.60;;;6.20;;
4646;SDS011;2336;47.822;7.564;2023-02-28T10:28:43;7.20;;;6.50;;
4646;SDS011;2336;47.822;7.564;2023-02-28T10:31:11;6.87;;;6.37;;
4646;SDS011;2336;47.822;7.564;2023-02-28T10:33:44;7.27;;;6.67;;
4646;SDS011;2336;47.822;7.564;2023-02-28T10:36:12;7.43;;;6.83;;
4646;SDS011;2336;47.822;7.564;2023-02-28T10:38:41;6.50;;;6.10;;
4646;SDS011;2336;47.822;7.564;2023-02-28T10:41:10;7.50;;;7.00;;
4646;SDS011;2336;47.822;7.564;2023-02-28T10:43:38;7.30;;;6.70;;
4646;SDS011;2336;47.822;7.564;2023-02-28T10:46:10;6.87;;;6.37;;
4646;SDS011;2336;47.822;7.564;2023-02-28T10:48:40;6.87;;;6.37;;
4646;SDS011;2336;47.822;7.564;2023-02-28T10:51:11;7.10;;;6.57;;
4646;SDS011;2336;47.822;7.564;2023-02-28T10:53:45;7.50;;;6.90;;
4646;SDS011;2336;47.822;7.564;2023-02-28T10:56:16;6.20;;;5.70;;
4646;SDS011;2336;47.822;7.564;2023-02-28T10:58:51;7.10;;;6.60;;
4646;SDS011;2336;47.822;7.564;2023-02-28T11:01:20;7.00;;;6.40;;
4646;SDS011;2336;47.822;7.564;2023-02-28T11:03:48;5.80;;;5.50;;
4646;SDS011;2336;47.822;7.564;2023-02-28T11:06:18;7.67;;;7.00;;
4646;SDS011;2336;47.822;7.564;2023-02-28T11:08:48;6.40;;;6.00;;
4646;SDS011;2336;47.822;7.564;2023-02-28T11:11:17;6.83;;;6.27;;
4646;SDS011;2336;47.822;7.564;2023-02-28T11:13:46;6.77;;;6.27;;
4646;SDS011;2336;47.822;7.564;2023-02-28T11:16:16;8.87;;;8.00;;
4646;SDS011;2336;47.822;7.564;2023-02-28T11:18:44;7.17;;;6.63;;
4646;SDS011;2336;47.822;7.564;2023-02-28T11:21:23;7.30;;;6.73;;
4646;SDS011;2336;47.822;7.564;2023-02-28T11:23:53;8.90;;;6.30;;
4646;SDS011;2336;47.822;7.564;2023-02-28T11:26:37;6.90;;;6.50;;
4646;SDS011;2336;47.822;7.564;2023-02-28T11:29:09;7.50;;;6.90;;
4646;SDS011;2336;47.822;7.564;2023-02-28T11:31:40;6.90;;;6.30;;
4646;SDS011;2336;47.822;7.564;2023-02-28T11:34:23;7.47;;;6.77;;
4646;SDS011;2336;47.822;7.564;2023-02-28T11:36:54;7.60;;;7.00;;
4646;SDS011;2336;47.822;7.564;2023-02-28T11:39:23;6.60;;;6.20;;
4646;SDS011;2336;47.822;7.564;2023-02-28T11:41:54;7.67;;;7.17;;
4646;SDS011;2336;47.822;7.564;2023-02-28T11:44:34;7.70;;;7.13;;
4646;SDS011;2336;47.822;7.564;2023-02-28T11:47:12;9.93;;;7.30;;
4646;SDS011;2336;47.822;7.564;2023-02-28T11:49:46;13.87;;;11.73;;
4646;SDS011;2336;47.822;7.564;2023-02-28T11:52:25;17.80;;;12.67;;
4646;SDS011;2336;47.822;7.564;2023-02-28T11:55:03;7.57;;;6.97;;
4646;SDS011;2336;47.822;7.564;2023-02-28T11:57:46;8.23;;;7.63;;
4646;SDS011;2336;47.822;7.564;2023-02-28T12:00:38;6.80;;;6.30;;
4646;SDS011;2336;47.822;7.564;2023-02-28T12:03:19;6.60;;;6.10;;
4646;SDS011;2336;47.822;7.564;2023-02-28T12:05:56;7.27;;;6.77;;
4646;SDS011;2336;47.822;7.564;2023-02-28T12:08:37;10.33;;;6.70;;
4646;SDS011;2336;47.822;7.564;2023-02-28T12:11:14;8.13;;;7.47;;
4646;SDS011;2336;47.822;7.564;2023-02-28T12:13:56;7.83;;;7.03;;
4646;SDS011;2336;47.822;7.564;2023-02-28T12:16:41;7.40;;;6.90;;
4646;SDS011;2336;47.822;7.564;2023-02-28T12:19:17;7.07;;;6.57;;
4646;SDS011;2336;47.822;7.564;2023-02-28T12:24:57;8.03;;;7.40;;
4646;SDS011;2336;47.822;7.564;2023-02-28T12:27:46;7.33;;;6.73;;
4646;SDS011;2336;47.822;7.564;2023-02-28T12:30:16;7.07;;;6.50;;
4646;SDS011;2336;47.822;7.564;2023-02-28T12:32:46;7.00;;;6.50;;
4646;SDS011;2336;47.822;7.564;2023-02-28T12:35:17;8.03;;;7.20;;
4646;SDS011;2336;47.822;7.564;2023-02-28T12:37:49;7.77;;;7.17;;
4646;SDS011;2336;47.822;7.564;2023-02-28T12:40:21;10.97;;;10.00;;
4646;SDS011;2336;47.822;7.564;2023-02-28T12:42:50;8.03;;;7.43;;
4646;SDS011;2336;47.822;7.564;2023-02-28T12:45:20;8.17;;;7.50;;
4646;SDS011;2336;47.822;7.564;2023-02-28T12:47:50;6.83;;;6.43;;
4646;SDS011;2336;47.822;7.564;2023-02-28T12:50:23;8.03;;;7.33;;
4646;SDS011;2336;47.822;7.564;2023-02-28T12:52:52;8.37;;;7.80;;
4646;SDS011;2336;47.822;7.564;2023-02-28T12:55:29;7.70;;;6.60;;
4646;SDS011;2336;47.822;7.564;2023-02-28T12:58:03;7.63;;;6.60;;
4646;SDS011;2336;47.822;7.564;2023-02-28T13:00:42;7.53;;;6.97;;
4646;SDS011;2336;47.822;7.564;2023-02-28T13:03:24;7.10;;;6.60;;
4646;SDS011;2336;47.822;7.564;2023-02-28T13:06:17;8.57;;;7.30;;
4646;SDS011;2336;47.822;7.564;2023-02-28T13:09:01;8.10;;;7.50;;
4646;SDS011;2336;47.822;7.564;2023-02-28T13:11:33;8.50;;;7.90;;
4646;SDS011;2336;47.822;7.564;2023-02-28T13:14:06;8.83;;;8.13;;
4646;SDS011;2336;47.822;7.564;2023-02-28T13:19:38;9.10;;;8.30;;
4646;SDS011;2336;47.822;7.564;2023-02-28T13:22:15;8.30;;;7.70;;
4646;SDS011;2336;47.822;7.564;2023-02-28T13:24:46;12.23;;;7.23;;
4646;SDS011;2336;47.822;7.564;2023-02-28T13:30:02;7.97;;;7.33;;
4646;SDS011;2336;47.822;7.564;2023-02-28T13:33:26;8.57;;;7.73;;
4646;SDS011;2336;47.822;7.564;2023-02-28T13:36:01;7.80;;;7.20;;
4646;SDS011;2336;47.822;7.564;2023-02-28T13:38:35;8.50;;;7.17;;
4646;SDS011;2336;47.822;7.564;2023-02-28T13:44:14;7.70;;;7.10;;
4646;SDS011;2336;47.822;7.564;2023-02-28T13:49:49;8.63;;;7.93;;
4646;SDS011;2336;47.822;7.564;2023-02-28T13:52:18;8.03;;;7.40;;
4646;SDS011;2336;47.822;7.564;2023-02-28T13:54:51;8.57;;;7.77;;
4646;SDS011;2336;47.822;7.564;2023-02-28T13:57:39;8.37;;;7.70;;
4646;SDS011;2336;47.822;7.564;2023-02-28T14:00:19;8.60;;;7.90;;
4646;SDS011;2336;47.822;7.564;2023-02-28T14:03:00;7.63;;;7.13;;
4646;SDS011;2336;47.822;7.564;2023-02-28T14:05:40;7.60;;;7.10;;
4646;SDS011;2336;47.822;7.564;2023-02-28T14:08:10;8.97;;;8.27;;
4646;SDS011;2336;47.822;7.564;2023-02-28T14:10:44;8.60;;;7.90;;
4646;SDS011;2336;47.822;7.564;2023-02-28T14:13:14;9.70;;;8.70;;
4646;SDS011;2336;47.822;7.564;2023-02-28T14:15:57;9.20;;;8.40;;
4646;SDS011;2336;47.822;7.564;2023-02-28T14:18:28;9.10;;;8.20;;
4646;SDS011;2336;47.822;7.564;2023-02-28T14:20:58;9.27;;;8.37;;
4646;SDS011;2336;47.822;7.564;2023-02-28T14:26:46;8.43;;;7.63;;
4646;SDS011;2336;47.822;7.564;2023-02-28T14:29:42;13.37;;;9.43;;
4646;SDS011;2336;47.822;7.564;2023-02-28T14:32:33;9.47;;;8.57;;
4646;SDS011;2336;47.822;7.564;2023-02-28T14:35:12;8.43;;;7.83;;
4646;SDS011;2336;47.822;7.564;2023-02-28T14:37:50;8.77;;;8.03;;
4646;SDS011;2336;47.822;7.564;2023-02-28T14:40:18;9.13;;;8.33;;
4646;SDS011;2336;47.822;7.564;2023-02-28T14:42:54;9.73;;;8.77;;
4646;SDS011;2336;47.822;7.564;2023-02-28T14:45:22;9.40;;;8.60;;
4646;SDS011;2336;47.822;7.564;2023-02-28T14:47:51;10.80;;;9.17;;
4646;SDS011;2336;47.822;7.564;2023-02-28T14:50:18;10.10;;;9.10;;
4646;SDS011;2336;47.822;7.564;2023-02-28T14:52:47;8.83;;;8.03;;
4646;SDS011;2336;47.822;7.564;2023-02-28T14:55:18;10.40;;;9.50;;
4646;SDS011;2336;47.822;7.564;2023-02-28T14:57:51;14.20;;;11.40;;
4646;SDS011;2336;47.822;7.564;2023-02-28T15:00:22;10.67;;;9.47;;
4646;SDS011;2336;47.822;7.564;2023-02-28T15:02:53;10.20;;;9.30;;
4646;SDS011;2336;47.822;7.564;2023-02-28T15:05:28;10.70;;;9.70;;
4646;SDS011;2336;47.822;7.564;2023-02-28T15:08:06;9.60;;;8.80;;
4646;SDS011;2336;47.822;7.564;2023-02-28T15:10:38;9.73;;;8.80;;
4646;SDS011;2336;47.822;7.564;2023-02-28T15:13:07;10.27;;;9.40;;
4646;SDS011;2336;47.822;7.564;2023-02-28T15:15:42;10.53;;;9.10;;
4646;SDS011;2336;47.822;7.564;2023-02-28T15:18:14;10.17;;;9.27;;
4646;SDS011;2336;47.822;7.564;2023-02-28T15:20:45;10.97;;;9.60;;
4646;SDS011;2336;47.822;7.564;2023-02-28T15:23:12;11.07;;;9.90;;
4646;SDS011;2336;47.822;7.564;2023-02-28T15:25:40;10.10;;;9.17;;
4646;SDS011;2336;47.822;7.564;2023-02-28T15:28:10;12.10;;;9.73;;
4646;SDS011;2336;47.822;7.564;2023-02-28T15:30:50;10.10;;;9.30;;
4646;SDS011;2336;47.822;7.564;2023-02-28T15:33:20;10.07;;;9.10;;
4646;SDS011;2336;47.822;7.564;2023-02-28T15:35:48;10.07;;;9.17;;
4646;SDS011;2336;47.822;7.564;2023-02-28T15:38:18;10.30;;;9.30;;
4646;SDS011;2336;47.822;7.564;2023-02-28T15:40:50;9.93;;;9.13;;
4646;SDS011;2336;47.822;7.564;2023-02-28T15:43:23;10.93;;;9.83;;
4646;SDS011;2336;47.822;7.564;2023-02-28T15:45:52;10.27;;;9.37;;
4646;SDS011;2336;47.822;7.564;2023-02-28T15:48:25;16.70;;;9.70;;
4646;SDS011;2336;47.822;7.564;2023-02-28T15:50:55;10.30;;;9.40;;
4646;SDS011;2336;47.822;7.564;2023-02-28T15:53:25;10.97;;;10.07;;
4646;SDS011;2336;47.822;7.564;2023-02-28T15:55:56;10.03;;;9.23;;
4646;SDS011;2336;47.822;7.564;2023-02-28T15:58:26;9.90;;;9.10;;
4646;SDS011;2336;47.822;7.564;2023-02-28T16:01:00;10.80;;;9.80;;